This is the latest recevied weather packets stored in our database for station/object GW1469. If no packets are shown the sender has not sent any weather packets the latest 10 day(s).
| Time | Temp. | Humidity | Pressure | Rain* | Wind** | Luminosity | Snow |
|---|---|---|---|---|---|---|---|
| 1777452153 | 15° C | 99% | 1023.3 hPa | 0 mm | - | - | - |
| 1777448568 | 15° C | 99% | 1023.3 hPa | 0 mm | - | - | - |
| 1777448179 | 15° C | 99% | 1023.3 hPa | 0 mm | - | - | - |
| 1777445669 | 15° C | 99% | 1024 hPa | 0 mm | - | - | - |
| 1777445331 | 15° C | 99% | 1023.7 hPa | 0 mm | - | - | - |
| 1777443879 | 15° C | 99% | 1023.7 hPa | 0 mm | - | - | - |
| 1777442072 | 15° C | 99% | 1024.3 hPa | 0 mm | - | - | - |
| 1777441332 | 15° C | 99% | 1024.7 hPa | 0 mm | - | - | - |
| 1777438126 | 15.56° C | 99% | 1025 hPa | 0 mm | - | - | - |
| 1777436667 | 15.56° C | 99% | 1025 hPa | 0 mm | - | - | - |
| 1777433447 | 15.56° C | 98% | 1025.7 hPa | 6.86 mm | - | - | - |
| 1777431256 | 16.11° C | 97% | 1026 hPa | 6.86 mm | - | - | - |
| 1777430213 | 16.11° C | 96% | 1026.4 hPa | 6.86 mm | - | - | - |
| 1777428393 | 16.67° C | 93% | 1026.7 hPa | 6.86 mm | - | - | - |
| 1777421909 | 18.89° C | 82% | 1024.7 hPa | 6.86 mm | - | - | - |
| 1777420098 | 20.56° C | 77% | 1025.3 hPa | 6.86 mm | - | - | - |
| 1777418667 | 21.67° C | 73% | 1025 hPa | 6.86 mm | - | - | - |
| 1777417608 | 21.67° C | 71% | 1025 hPa | 6.86 mm | - | - | - |
| 1777417237 | 21.67° C | 70% | 1025 hPa | 6.86 mm | - | - | - |
| 1777406074 | 22.22° C | 68% | 1026.7 hPa | 6.86 mm | - | - | - |
| 1777400331 | 22.22° C | 66% | 1027 hPa | 6.86 mm | - | - | - |
| 1777399601 | 23.33° C | 58% | 1027 hPa | 6.86 mm | - | - | - |
| 1777398136 | 22.78° C | 59% | 1027 hPa | 6.86 mm | - | - | - |
| 1777395648 | 21.67° C | 65% | 1027.4 hPa | 6.86 mm | - | - | - |
| 1777394924 | 21.67° C | 66% | 1027.4 hPa | 6.86 mm | - | - | - |
* Rain since midnight (hover to see other rain measurements)
** Current wind speed in m/s (hover to see current wind gust speed)